Latest Weather Observations for Adelaide Airport

IDS60801

Issued at 5:31 pm CST Tuesday 20 April 2021 (issued every 10 minutes, with the page automatically refreshed every 10 minutes)

About weather observations | Map of weather stations | Latest weather observations for SA | Other Formats
Station Details ID: 023034 Name: ADELAIDE AIRPORT Lat: -34.95 Lon: 138.52 Height: 2.0 m
Data from the previous 72 hours. | See also: Recent months at Adelaide Airport
Date/Time
CST
Temp
°C
App
Temp
°C
Dew
Point
°C
Rel
Hum
%
Delta-T
°C
Wind Press
QNH
hPa
Press
MSL
hPa
Rain since
9am
mm
Dir  Spd
km/h
Gust
km/h
Spd
kts
Gust
kts
20/05:00pm 16.0 10.7 3.0 41 5.9 S 20 30 11 16 1017.8 1017.8 0.8
20/04:30pm 16.4 9.9 2.7 40 6.2 SW 26 33 14 18 1017.5 1017.5 0.8
20/04:00pm 16.9 10.1 3.1 39 6.3 SSW 28 37 15 20 1017.4 1017.4 0.8
20/03:30pm 16.9 10.5 3.2 40 6.3 SSW 26 35 14 19 1017.2 1017.2 0.8
20/03:00pm 17.1 10.3 5.2 45 5.7 SSW 30 41 16 22 1016.9 1016.9 0.8
20/02:30pm 17.5 11.4 6.6 48 5.4 SSW 28 37 15 20 1016.6 1016.6 0.8
20/02:00pm 17.1 10.7 6.8 50 5.1 SSW 30 41 16 22 1016.5 1016.5 0.8
20/01:30pm 18.3 12.4 7.4 49 5.5 S 28 37 15 20 1016.5 1016.5 0.8
20/01:00pm 17.7 13.5 8.3 54 4.8 S 20 30 11 16 1016.5 1016.5 0.8
20/12:30pm 16.4 11.5 8.3 58 4.1 S 24 37 13 20 1016.9 1016.9 0.8
20/12:00pm 16.6 11.2 9.5 63 3.7 S 28 37 15 20 1016.8 1016.8 0.8
20/11:30am 16.2 11.3 10.1 67 3.2 S 26 37 14 20 1016.4 1016.4 0.8
20/11:00am 16.2 11.5 10.5 69 3.0 S 26 39 14 21 1016.2 1016.2 0.8
20/10:30am 15.4 10.9 11.3 76 2.2 S 26 32 14 17 1016.0 1016.0 0.8
20/10:00am 15.7 11.3 13.0 84 1.5 S 28 35 15 19 1015.2 1015.2 0.8
20/09:30am 15.7 12.9 13.2 85 1.4 SSW 20 30 11 16 1014.6 1014.6 0.8
20/09:25am 15.7 13.0 13.4 86 1.3 SSW 20 30 11 16 1014.5 1014.5 0.8
20/09:22am 15.7 13.0 13.6 87 1.2 SSW 20 30 11 16 1014.4 1014.4 0.8
20/09:11am 15.9 12.0 14.3 90 0.9 W 28 43 15 23 1014.3 1014.3 0.2
20/09:08am 15.7 11.4 14.5 93 0.7 W 30 43 16 23 1014.3 1014.3 0.2
20/09:00am 16.0 12.4 14.2 89 1.0 WNW 26 32 14 17 1014.2 1014.2 1.4
20/08:58am 16.3 12.6 13.8 85 1.4 WNW 26 32 14 17 1014.2 1014.2 1.0
20/08:56am 16.6 12.9 13.8 83 1.6 WNW 26 32 14 17 1014.1 1014.1 0.6
20/08:53am 17.2 13.2 13.1 77 2.3 WNW 26 33 14 18 1014.1 1014.1 0.0
20/08:51am 17.3 12.9 12.8 75 2.5 WNW 28 33 15 18 1014.1 1014.1 0.0
20/08:42am 17.2 13.2 12.9 76 2.4 WNW 26 33 14 18 1014.1 1014.1 0.0
20/08:30am 17.6 13.5 12.8 73 2.7 WNW 26 37 14 20 1014.2 1014.2 0.0
20/08:00am 17.5 15.3 13.2 76 2.4 NE 17 19 9 10 1014.0 1014.0 0.0
20/07:49am 17.4 14.7 11.7 69 3.1 NE 17 22 9 12 1013.9 1013.9 0.0
20/07:30am 12.4 8.9 8.8 79 1.8 NNE 17 19 9 10 1013.9 1013.9 0.0
20/07:00am 11.7 8.8 8.0 78 1.8 NE 13 17 7 9 1013.7 1013.7 0.0
20/06:30am 11.4 7.3 7.7 78 1.8 NNE 19 22 10 12 1013.5 1013.5 0.0
20/06:00am 11.0 7.6 7.5 79 1.7 NNE 15 17 8 9 1013.5 1013.5 0.0
20/05:30am 10.6 7.6 7.7 82 1.4 NE 13 15 7 8 1013.6 1013.6 0.0
20/05:00am 10.5 8.2 7.6 82 1.4 NE 9 15 5 8 1013.7 1013.7 0.0
20/04:30am 11.0 7.2 7.5 79 1.7 NNE 17 20 9 11 1013.5 1013.5 0.0
20/04:00am 11.3 8.3 7.6 78 1.8 NNE 13 17 7 9 1013.6 1013.6 0.0
20/03:30am 11.8 9.2 7.7 76 2.0 NNE 11 13 6 7 1013.8 1013.8 0.0
20/03:00am 11.4 8.2 7.0 74 2.1 NNE 13 17 7 9 1013.7 1013.7 0.0
20/02:30am 11.7 8.2 7.1 73 2.2 NNE 15 19 8 10 1013.9 1013.9 0.0
20/02:00am 11.6 7.8 7.5 76 2.0 NNE 17 19 9 10 1014.2 1014.2 0.0
20/01:30am 11.6 7.8 7.5 76 2.0 NNE 17 19 9 10 1014.4 1014.4 0.0
20/01:00am 10.7 7.7 7.6 81 1.5 NE 13 15 7 8 1014.5 1014.5 0.0
20/12:30am 11.1 9.0 8.2 82 1.4 NE 9 13 5 7 1014.8 1014.8 0.0
20/12:00am 11.2 9.1 8.1 81 1.5 NE 9 9 5 5 1014.9 1014.9 0.0
 
Date/Time
CST
Temp
°C
App
Temp
°C
Dew
Point
°C
Rel
Hum
%
Delta-T
°C
Wind Press
QNH
hPa
Press
MSL
hPa
Rain since
9am
mm
Dir  Spd
km/h
Gust
km/h
Spd
kts
Gust
kts
19/11:30pm 11.1 9.4 8.2 82 1.4 NE 7 9 4 5 1015.2 1015.2 0.0
19/11:00pm 11.5 9.7 8.0 79 1.7 E 7 7 4 4 1015.3 1015.3 0.0
19/10:30pm 11.9 11.1 8.2 78 1.8 ENE 2 6 1 3 1015.5 1015.5 0.0
19/10:00pm 12.4 12.0 8.4 76 2.0 CALM 0 0 0 0 1015.5 1015.5 0.0
19/09:30pm 12.2 11.8 8.4 77 1.9 CALM 0 0 0 0 1015.5 1015.5 0.0
19/09:00pm 12.3 11.8 8.0 75 2.1 CALM 0 0 0 0 1015.6 1015.6 0.0
19/08:30pm 12.8 10.7 8.1 73 2.3 NE 9 9 5 5 1015.5 1015.5 0.0
19/08:00pm 14.1 12.3 8.1 67 3.0 NE 7 9 4 5 1015.6 1015.6 0.0
19/07:30pm 14.5 14.0 7.9 64 3.3 CALM 0 0 0 0 1015.6 1015.6 0.0
19/07:00pm 16.1 14.5 7.9 58 4.1 N 6 6 3 3 1015.7 1015.7 0.0
19/06:30pm 17.0 15.0 8.8 58 4.2 NNW 9 9 5 5 1015.7 1015.7 0.0
19/06:00pm 17.8 15.6 7.7 51 5.1 WNW 9 11 5 6 1015.5 1015.5 0.0
19/05:30pm 19.0 15.8 6.8 45 6.1 NW 13 17 7 9 1015.6 1015.6 0.0
19/05:00pm 18.8 15.2 6.8 45 6.0 NW 15 19 8 10 1015.5 1015.5 0.0
19/04:30pm 19.9 15.5 6.5 41 6.7 NW 19 24 10 13 1015.5 1015.5 0.0
19/04:00pm 20.1 15.2 7.1 43 6.6 NW 22 30 12 16 1015.7 1015.7 0.0
19/03:30pm 20.0 15.7 7.7 45 6.3 NW 20 28 11 15 1015.8 1015.8 0.0
19/03:00pm 20.1 15.2 7.1 43 6.6 NW 22 28 12 15 1015.9 1015.9 0.0
19/02:30pm 20.0 16.7 9.7 51 5.5 NNW 17 24 9 13 1016.1 1016.1 0.0
19/02:00pm 19.1 16.5 10.8 58 4.5 NW 15 24 8 13 1016.3 1016.3 0.0
19/01:30pm 18.4 15.8 10.6 60 4.2 N 15 20 8 11 1016.6 1016.6 0.0
19/01:00pm 18.3 15.5 11.3 63 3.8 NNW 17 22 9 12 1017.3 1017.3 0.0
19/12:30pm 17.8 14.2 12.0 69 3.2 NNW 22 28 12 15 1018.0 1018.0 0.0
19/12:00pm 18.4 15.1 11.6 64 3.7 NNW 20 30 11 16 1018.4 1018.4 0.0
19/11:30am 18.0 14.2 9.9 59 4.3 N 20 33 11 18 1018.8 1018.8 0.0
19/11:00am 17.2 13.7 10.2 63 3.7 N 19 26 10 14 1019.1 1019.1 0.0
19/10:30am 16.5 12.9 10.0 65 3.4 N 19 24 10 13 1019.4 1019.4 0.0
19/10:00am 16.2 12.8 10.5 69 3.0 NNE 19 24 10 13 1019.7 1019.7 0.0
19/09:30am 15.0 12.7 11.6 80 1.8 NE 15 20 8 11 1019.9 1019.9 0.0
19/09:00am 14.1 11.8 11.9 86 1.2 NE 15 19 8 10 1020.1 1020.1 1.0
19/08:30am 13.3 10.1 11.8 91 0.8 NE 20 26 11 14 1020.1 1020.1 1.0
19/08:00am 13.0 9.7 11.7 92 0.7 NNE 20 26 11 14 1019.9 1019.9 1.0
19/07:30am 12.8 9.6 11.3 91 0.8 NNE 19 24 10 13 1019.7 1019.7 1.0
19/07:00am 12.6 9.2 11.1 91 0.8 N 20 26 11 14 1019.8 1019.8 1.0
19/06:30am 13.3 9.6 10.0 80 1.7 N 20 26 11 14 1019.6 1019.6 0.2
19/06:00am 13.3 9.6 9.6 78 1.9 NNE 19 22 10 12 1019.7 1019.7 0.2
19/05:30am 13.6 10.2 9.3 75 2.2 NE 17 19 9 10 1019.8 1019.8 0.2
19/05:00am 13.4 10.9 9.7 78 1.9 NE 13 17 7 9 1019.7 1019.7 0.2
19/04:30am 13.2 11.2 10.3 82 1.5 NNE 11 13 6 7 1019.6 1019.6 0.2
19/04:00am 13.4 11.6 10.7 84 1.4 NNE 11 13 6 7 1019.7 1019.7 0.2
19/03:30am 13.3 11.0 10.6 84 1.4 NE 13 15 7 8 1019.7 1019.7 0.2
19/03:00am 12.5 10.6 10.4 87 1.1 NE 11 13 6 7 1019.9 1019.9 0.2
19/02:30am 13.3 11.4 10.6 84 1.4 NE 11 11 6 6 1020.2 1020.2 0.2
19/02:00am 13.8 12.3 10.7 81 1.6 NE 9 11 5 6 1020.6 1020.6 0.2
19/01:30am 14.4 12.6 11.0 80 1.8 NE 11 13 6 7 1021.0 1021.0 0.2
19/01:00am 14.4 13.1 11.2 81 1.7 ENE 9 13 5 7 1021.3 1021.3 0.2
19/12:30am 14.7 12.3 10.1 74 2.4 NE 13 15 7 8 1021.4 1021.4 0.2
19/12:00am 14.6 13.1 10.4 76 2.2 ENE 9 11 5 6 1021.7 1021.7 0.2
 
Date/Time
CST
Temp
°C
App
Temp
°C
Dew
Point
°C
Rel
Hum
%
Delta-T
°C
Wind Press
QNH
hPa
Press
MSL
hPa
Rain since
9am
mm
Dir  Spd
km/h
Gust
km/h
Spd
kts
Gust
kts
18/11:31pm 14.3 13.2 10.7 79 1.9 ESE 7 9 4 5 1022.1 1022.1 0.2
18/11:30pm 14.3 13.2 10.5 78 2.0 ESE 7 9 4 5 1022.1 1022.1 0.2
18/11:00pm 14.3 14.0 10.0 75 2.2 ENE 2 6 1 3 1022.3 1022.3 0.2
18/10:30pm 14.8 13.0 9.3 69 2.8 NNE 9 9 5 5 1022.5 1022.5 0.2
18/10:00pm 14.3 12.8 9.2 71 2.6 NE 7 9 4 5 1022.4 1022.4 0.2
18/09:30pm 14.2 13.4 9.5 73 2.4 E 4 7 2 4 1022.7 1022.7 0.2
18/09:00pm 14.2 14.1 9.5 73 2.4 CALM 0 0 0 0 1022.8 1022.8 0.2
18/08:30pm 15.0 13.6 9.6 70 2.8 ENE 7 9 4 5 1022.8 1022.8 0.2
18/08:00pm 15.4 14.0 9.6 68 3.0 ENE 7 11 4 6 1022.9 1022.9 0.2
18/07:30pm 14.8 14.6 8.9 68 3.0 CALM 0 0 0 0 1023.2 1023.2 0.2
18/07:00pm 15.5 15.3 9.0 65 3.3 CALM 0 0 0 0 1023.4 1023.4 0.2
18/06:30pm 16.4 14.9 9.0 61 3.8 SSW 7 7 4 4 1023.2 1023.2 0.2
18/06:00pm 16.8 15.0 9.5 62 3.8 SW 9 11 5 6 1023.0 1023.0 0.2
18/05:30pm 17.7 15.7 8.5 55 4.7 SSW 9 13 5 7 1023.1 1023.1 0.2
18/05:00pm 18.2 16.3 8.9 54 4.8 SW 9 11 5 6 1023.1 1023.1 0.2
18/04:30pm 17.7 15.3 8.8 56 4.6 SW 11 13 6 7 1023.0 1023.0 0.2
18/04:00pm 18.6 15.9 7.5 48 5.6 WSW 11 15 6 8 1023.1 1023.1 0.2
18/03:30pm 18.4 15.8 7.7 49 5.4 SW 11 17 6 9 1023.3 1023.3 0.2
18/03:00pm 18.8 16.8 8.8 52 5.2 SSW 9 13 5 7 1023.3 1023.3 0.2
18/02:30pm 18.3 17.0 9.8 57 4.5 SE 7 11 4 6 1023.5 1023.5 0.2
18/02:00pm 18.0 15.7 10.3 60 4.1 ESE 13 17 7 9 1023.8 1023.8 0.2
18/01:30pm 17.0 17.3 12.3 74 2.6 SSW 2 9 1 5 1024.2 1024.2 0.2
18/01:00pm 16.7 15.8 12.7 77 2.2 WNW 9 13 5 7 1024.4 1024.4 0.0
18/12:30pm 17.3 14.5 11.2 67 3.3 WNW 17 19 9 10 1024.8 1024.8 0.0
18/12:00pm 18.9 17.1 10.7 59 4.4 NW 11 19 6 10 1025.1 1025.1 0.0
18/11:30am 18.5 17.0 11.9 65 3.6 N 11 17 6 9 1025.6 1025.6 0.0
18/11:00am 17.1 15.3 12.0 72 2.8 N 13 17 7 9 1025.8 1025.8 0.0
18/10:30am 17.6 15.8 12.1 70 3.0 N 13 15 7 8 1026.0 1026.0 0.0
18/10:00am 16.3 15.0 12.5 78 2.1 N 11 15 6 8 1026.3 1026.3 0.0
18/09:30am 16.1 14.7 12.2 77 2.1 NNE 11 13 6 7 1026.5 1026.5 0.0
18/09:00am 15.3 14.0 12.4 83 1.6 NE 11 15 6 8 1026.4 1026.4 0.0
18/08:30am 14.7 13.1 12.7 88 1.1 NE 13 15 7 8 1026.5 1026.5 0.0
18/08:00am 14.5 12.5 12.7 89 1.0 NE 15 17 8 9 1026.4 1026.4 0.0
18/07:30am 14.4 12.2 12.2 87 1.2 NNE 15 17 8 9 1026.3 1026.3 0.0
18/07:00am 14.7 13.3 12.1 84 1.4 NE 11 13 6 7 1026.1 1026.1 0.0
18/06:30am 14.7 13.3 12.1 84 1.4 NE 11 13 6 7 1025.8 1025.8 0.0
18/06:00am 14.8 12.9 11.8 82 1.6 NNE 13 15 7 8 1025.8 1025.8 0.0
18/05:30am 15.0 12.7 11.8 81 1.7 NNE 15 17 8 9 1025.9 1025.9 0.0
18/05:00am 15.1 13.5 11.5 79 1.9 NNE 11 13 6 7 1025.8 1025.8 0.0
18/04:30am 15.5 14.6 11.2 75 2.3 NNE 7 9 4 5 1025.7 1025.7 0.0
18/04:00am 15.4 14.1 11.1 75 2.3 ENE 9 9 5 5 1025.8 1025.8 0.0
18/03:30am 15.5 14.1 11.0 74 2.4 NE 9 11 5 6 1025.8 1025.8 0.0
18/03:00am 15.3 14.0 11.4 77 2.1 NE 9 9 5 5 1026.0 1026.0 0.0
18/02:30am 15.4 14.5 11.5 77 2.1 ENE 7 7 4 4 1026.2 1026.2 0.0
18/02:00am 15.6 14.2 10.9 73 2.5 E 9 11 5 6 1026.3 1026.3 0.0
18/01:30am 15.6 13.8 10.9 73 2.5 ENE 11 15 6 8 1026.5 1026.5 0.0
18/01:00am 15.9 14.0 10.4 70 2.9 ENE 11 15 6 8 1026.5 1026.5 0.0
18/12:30am 15.8 14.6 10.3 70 2.9 NE 7 9 4 5 1026.6 1026.6 0.0
18/12:00am 16.6 15.1 10.5 67 3.2 E 9 11 5 6 1026.7 1026.7 0.0
 
Date/Time
CST
Temp
°C
App
Temp
°C
Dew
Point
°C
Rel
Hum
%
Delta-T
°C
Wind Press
QNH
hPa
Press
MSL
hPa
Rain since
9am
mm
Dir  Spd
km/h
Gust
km/h
Spd
kts
Gust
kts
17/11:30pm 16.6 14.6 10.3 66 3.3 WSW 11 15 6 8 1026.9 1026.9 0.0
17/11:00pm 16.8 15.0 9.5 62 3.8 SW 9 11 5 6 1027.2 1027.2 0.0
17/10:30pm 16.6 16.5 9.4 62 3.7 CALM 0 0 0 0 1027.4 1027.4 0.0
17/10:00pm 16.4 16.9 11.6 73 2.6 CALM 0 0 0 0 1027.6 1027.6 0.0
17/09:30pm 16.2 15.1 10.7 70 2.9 SE 7 9 4 5 1027.6 1027.6 0.0
17/09:00pm 16.1 15.1 10.2 68 3.1 S 6 7 3 4 1027.6 1027.6 0.0
17/08:30pm 15.9 14.7 10.2 69 3.0 SE 7 11 4 6 1027.6 1027.6 0.0
17/08:00pm 16.6 14.5 9.7 63 3.6 S 11 13 6 7 1027.8 1027.8 0.0
17/07:30pm 16.9 14.8 9.6 62 3.8 S 11 15 6 8 1027.8 1027.8 0.0
17/07:00pm 17.1 14.8 9.1 59 4.1 SSW 11 15 6 8 1027.7 1027.7 0.0
17/06:30pm 17.1 13.9 9.8 62 3.8 SSW 17 22 9 12 1027.6 1027.6 0.0
17/06:00pm 17.2 13.6 8.3 56 4.5 SSW 17 19 9 10 1027.5 1027.5 0.0

Other formats

Comma delimited format used in spreadsheet applications
http://www.bom.gov.au/fwo/IDS60801/IDS60801.94672.axf

JavaScript Object Notation format (JSON) in row-major order
http://www.bom.gov.au/fwo/IDS60801/IDS60801.94672.json

Data quality

Most of these data are generated automatically and are frequently updated. Quality checks on data are not normally performed. It is possible for incorrect values to appear. Refer to information at About Latest Weather Observations and please check the disclaimer before using these data.